Montreal, Canada
Current Conditions -  °F | °C
As of 2:00 PM on Friday 31 Oct 2014 (Local Time) from CYHU Reporting Station
Clear Clear  
Wind Chill: 41°   Ceiling: Unl
Heat Index: 45°   Visibility: 9mi
Dew Point: 25°   Wind: 6mph
Humidity: 46%   Direction: 350°N
Pressure: 30.06"   Gusts: NA
Location:  45.51°N, 73.55°W
Report Text: CYHU 311800Z AUTO 35005KT 9SM CLR 07/M04 A3006 RMK SLP181
Loading
Personal Weather Stations






























Interactive Weather Map New forecast layout! Learn more

10-Day Weather Forecast

Advertisements
Track Severe Weather on mobile